Time;durP1;ratioP1;P1;durP2;ratioP2;P2;SDS_P1;SDS_P2;PMS_P1;PMS_P2;Temp;Humidity;BMP_temperature;BMP_pressure;BME280_temperature;BME280_humidity;BME280_pressure;Samples;Min_cycle;Max_cycle;Signal;HPM_P1;HPM_P2
2024/03/16 00:00:39;;;;;;;;;;;;;;;13.90;51.63;100175.50;4965444;27;98099;-70
2024/03/16 00:03:06;;;;;;;;;;;;;;;13.90;51.53;100180.91;4969333;27;97990;-76
2024/03/16 00:05:32;;;;;;;;;;;;;;;13.90;51.87;100180.13;4960099;27;98189;-75
2024/03/16 00:07:59;;;;;;;;;;;;;;;13.88;51.65;100188.56;4988339;27;98550;-70
2024/03/16 00:10:25;;;;;;;;;;;;;;;13.87;51.61;100184.25;4966257;27;98387;-70
2024/03/16 00:12:51;;;;;;;;;;;;;;;13.86;51.92;100182.63;4963905;27;98065;-70
2024/03/16 00:15:17;;;;;;;;;;;;;;;13.86;51.98;100184.53;4946576;27;98343;-70
2024/03/16 00:17:44;;;;;;;;;;;;;;;13.84;51.90;100190.25;4966641;27;98943;-70
2024/03/16 00:20:10;;;;;;;;;;;;;;;13.83;51.79;100185.09;4961299;27;98342;-76
2024/03/16 00:22:39;;;;;;;;;;;;;;;13.82;51.83;100187.00;4946072;27;101019;-75
2024/03/16 00:25:06;;;;;;;;;;;;;;;13.82;51.88;100188.91;4967510;27;98299;-70
2024/03/16 00:27:35;;;;;;;;;;;;;;;13.80;51.57;100183.00;4967454;27;97988;-70
2024/03/16 00:30:04;;;;;;;;;;;;;;;13.78;51.77;100186.00;4939614;27;98421;-71
2024/03/16 00:32:30;;;;;;;;;;;;;;;13.77;51.58;100192.53;4965944;27;98431;-76
2024/03/16 00:34:58;;;;;;;;;;;;;;;13.77;51.66;100195.22;4959033;27;98524;-76
2024/03/16 00:37:24;;;;;;;;;;;;;;;13.74;51.78;100185.78;4972643;27;98580;-76
2024/03/16 00:39:51;;;;;;;;;;;;;;;13.74;52.03;100184.97;4983414;27;98287;-70
2024/03/16 00:42:17;;;;;;;;;;;;;;;13.73;51.59;100191.50;4977135;27;101726;-76
2024/03/16 00:44:43;;;;;;;;;;;;;;;13.72;51.62;100188.00;4982010;27;99480;-70
2024/03/16 00:47:10;;;;;;;;;;;;;;;13.69;51.80;100180.44;4982061;27;98246;-70
2024/03/16 00:49:37;;;;;;;;;;;;;;;13.69;51.56;100190.47;4956706;27;98202;-70
2024/03/16 00:52:04;;;;;;;;;;;;;;;13.69;51.70;100185.06;4949557;28;99283;-70
2024/03/16 00:54:30;;;;;;;;;;;;;;;13.67;51.69;100179.91;5000156;27;98319;-70
2024/03/16 00:56:56;;;;;;;;;;;;;;;13.66;51.98;100175.63;4942095;27;98251;-76
2024/03/16 00:59:22;;;;;;;;;;;;;;;13.66;51.85;100175.63;4958882;28;98016;-75
2024/03/16 01:01:49;;;;;;;;;;;;;;;13.64;51.73;100164.28;4939028;27;98055;-76
2024/03/16 01:04:15;;;;;;;;;;;;;;;13.64;51.81;100175.13;4983261;27;98467;-75
2024/03/16 01:06:43;;;;;;;;;;;;;;;13.63;52.01;100173.50;4962293;27;98179;-70
2024/03/16 01:09:10;;;;;;;;;;;;;;;13.63;51.93;100176.19;4963160;27;98561;-70
2024/03/16 01:11:36;;;;;;;;;;;;;;;13.61;51.76;100180.31;4963711;27;98245;-69
2024/03/16 01:14:05;;;;;;;;;;;;;;;13.61;52.02;100174.91;4980199;27;98506;-70
2024/03/16 01:16:31;;;;;;;;;;;;;;;13.60;51.63;100176.81;4968321;27;97987;-70
2024/03/16 01:18:57;;;;;;;;;;;;;;;13.59;51.66;100174.38;4964639;27;99258;-70
2024/03/16 01:21:24;;;;;;;;;;;;;;;13.58;52.03;100179.00;4948015;27;98441;-76
2024/03/16 01:23:50;;;;;;;;;;;;;;;13.58;51.93;100180.91;4947362;28;98458;-70
2024/03/16 01:26:16;;;;;;;;;;;;;;;13.57;51.92;100180.09;4939467;27;98114;-70
2024/03/16 01:28:43;;;;;;;;;;;;;;;13.55;51.70;100179.56;4963347;27;98588;-76
2024/03/16 01:31:09;;;;;;;;;;;;;;;13.55;51.59;100179.56;4946437;27;98663;-70
2024/03/16 01:33:35;;;;;;;;;;;;;;;13.53;51.86;100173.66;4964941;27;98242;-75
2024/03/16 01:36:03;;;;;;;;;;;;;;;13.53;51.86;100179.06;4945108;28;98013;-70
2024/03/16 01:38:29;;;;;;;;;;;;;;;13.53;51.98;100180.97;4946904;27;98083;-75
2024/03/16 01:40:55;;;;;;;;;;;;;;;13.51;51.78;100183.97;4945221;27;98086;-70
2024/03/16 01:43:22;;;;;;;;;;;;;;;13.50;51.86;100177.75;4956779;27;98259;-75
2024/03/16 01:45:48;;;;;;;;;;;;;;;13.50;51.62;100174.25;4961710;27;98073;-70
2024/03/16 01:48:15;;;;;;;;;;;;;;;13.48;52.06;100177.25;4964214;27;98221;-76
2024/03/16 01:50:43;;;;;;;;;;;;;;;13.48;51.64;100173.75;4966237;27;98357;-71
2024/03/16 01:53:09;;;;;;;;;;;;;;;13.47;51.91;100180.25;4960646;27;98067;-75
2024/03/16 01:55:36;;;;;;;;;;;;;;;13.46;51.81;100176.72;4962634;27;98249;-76
2024/03/16 01:58:09;;;;;;;;;;;;;;;13.46;52.06;100175.94;4960983;27;98479;-70
2024/03/16 02:00:35;;;;;;;;;;;;;;;13.45;51.98;100179.75;4981703;27;98561;-75
2024/03/16 02:03:02;;;;;;;;;;;;;;;13.45;51.66;100179.75;4945587;27;98326;-70
2024/03/16 02:05:29;;;;;;;;;;;;;;;13.43;51.56;100171.91;4951693;27;97837;-75
2024/03/16 02:07:55;;;;;;;;;;;;;;;13.42;51.77;100167.59;4965414;27;98101;-70
2024/03/16 02:10:22;;;;;;;;;;;;;;;13.43;51.74;100169.19;4968187;28;98146;-70
2024/03/16 02:12:48;;;;;;;;;;;;;;;13.42;51.49;100172.19;4955832;27;100253;-75
2024/03/16 02:15:15;;;;;;;;;;;;;;;13.41;51.63;100170.59;4947181;27;98309;-69
2024/03/16 02:17:42;;;;;;;;;;;;;;;13.41;51.97;100170.59;4959525;27;98166;-70
2024/03/16 02:20:14;;;;;;;;;;;;;;;13.39;51.87;100170.88;4944418;27;98734;-69
2024/03/16 02:22:41;;;;;;;;;;;;;;;13.39;51.85;100175.47;4970314;27;98372;-70
2024/03/16 02:25:08;;;;;;;;;;;;;;;13.38;52.05;100169.28;4977483;27;99468;-70
2024/03/16 02:27:34;;;;;;;;;;;;;;;13.37;52.03;100167.66;4995922;27;98502;-70
2024/03/16 02:30:01;;;;;;;;;;;;;;;13.37;51.66;100170.38;4947405;27;98482;-69
2024/03/16 02:32:27;;;;;;;;;;;;;;;13.37;51.98;100169.56;4965442;27;99014;-69
2024/03/16 02:34:53;;;;;;;;;;;;;;;13.35;51.65;100172.56;4974688;27;98419;-76
2024/03/16 02:37:20;;;;;;;;;;;;;;;13.34;52.07;100164.75;4938028;28;99679;-76
2024/03/16 02:39:46;;;;;;;;;;;;;;;13.34;51.82;100172.84;4965670;27;98053;-70
2024/03/16 02:42:13;;;;;;;;;;;;;;;13.33;51.69;100168.56;4977579;27;98137;-70
2024/03/16 02:44:40;;;;;;;;;;;;;;;13.33;52.08;100168.56;4964682;27;98013;-70
2024/03/16 02:47:07;;;;;;;;;;;;;;;13.31;51.83;100168.03;4950814;28;98007;-70
2024/03/16 02:49:33;;;;;;;;;;;;;;;13.29;51.87;100172.94;4948013;27;98131;-70
2024/03/16 02:52:00;;;;;;;;;;;;;;;13.29;51.84;100170.22;4964455;27;98997;-75
2024/03/16 02:54:26;;;;;;;;;;;;;;;13.27;51.66;100170.50;4962356;27;98005;-75
2024/03/16 02:56:52;;;;;;;;;;;;;;;13.27;51.82;100165.09;4957346;28;98558;-70
2024/03/16 02:59:20;;;;;;;;;;;;;;;13.26;51.80;100177.03;4961486;27;99712;-76
2024/03/16 03:01:46;;;;;;;;;;;;;;;13.24;51.66;100180.03;4985273;27;98256;-70
2024/03/16 03:04:15;;;;;;;;;;;;;;;13.23;52.02;100181.09;4970486;27;98125;-69
2024/03/16 03:06:41;;;;;;;;;;;;;;;13.23;51.93;100188.44;4959909;27;98042;-75
2024/03/16 03:09:09;;;;;;;;;;;;;;;13.20;52.07;100189.81;4958746;27;98208;-69
2024/03/16 03:11:37;;;;;;;;;;;;;;;13.21;51.72;100190.59;4960687;28;98239;-75
2024/03/16 03:14:06;;;;;;;;;;;;;;;13.20;51.68;100194.38;4948094;27;98076;-75
2024/03/16 03:16:32;;;;;;;;;;;;;;;13.18;52.08;100186.56;4955624;27;98121;-76
2024/03/16 03:18:58;;;;;;;;;;;;;;;13.17;52.00;100201.19;4964679;27;97928;-75
2024/03/16 03:21:25;;;;;;;;;;;;;;;13.17;51.71;100203.91;4980191;27;98645;-70
2024/03/16 03:23:51;;;;;;;;;;;;;;;13.17;51.72;100193.09;4964283;27;98089;-70
2024/03/16 03:26:18;;;;;;;;;;;;;;;13.16;51.66;100201.47;4978996;27;99096;-69
2024/03/16 03:28:44;;;;;;;;;;;;;;;13.16;51.83;100204.19;4965042;27;98472;-75
2024/03/16 03:31:11;;;;;;;;;;;;;;;13.15;51.88;100210.69;4977043;27;98063;-76
2024/03/16 03:33:39;;;;;;;;;;;;;;;13.14;52.09;100209.09;5015125;27;98436;-69
2024/03/16 03:36:05;;;;;;;;;;;;;;;13.13;52.10;100215.59;4978604;27;98491;-75
2024/03/16 03:38:32;;;;;;;;;;;;;;;13.13;52.14;100207.50;4983291;27;98198;-69
2024/03/16 03:40:58;;;;;;;;;;;;;;;13.13;51.73;100218.31;4979981;27;98313;-75
2024/03/16 03:43:25;;;;;;;;;;;;;;;13.12;51.68;100216.69;4981830;27;102107;-69
2024/03/16 03:45:52;;;;;;;;;;;;;;;13.11;51.93;100221.28;4980419;27;98428;-76
2024/03/16 03:48:35;;;;;;;;;;;;;;;13.11;51.87;100224.00;4978492;27;99484;-70
2024/03/16 03:51:05;;;;;;;;;;;;;;;13.11;52.03;100221.28;4977077;27;100364;-76
2024/03/16 03:53:32;;;;;;;;;;;;;;;13.11;51.96;100223.19;4968394;27;98023;-69
2024/03/16 03:55:59;;;;;;;;;;;;;;;13.11;51.72;100223.19;4968186;27;98031;-70
2024/03/16 03:58:27;;;;;;;;;;;;;;;13.10;51.78;100214.28;4986020;27;99225;-70
2024/03/16 04:00:53;;;;;;;;;;;;;;;13.11;51.96;100223.19;4973863;27;98831;-70
2024/03/16 04:03:19;;;;;;;;;;;;;;;13.09;52.04;100220.78;4976252;27;98330;-75
2024/03/16 04:05:45;;;;;;;;;;;;;;;13.09;51.74;100226.22;4988157;27;98255;-70
2024/03/16 04:08:12;;;;;;;;;;;;;;;13.09;51.66;100220.00;4983108;27;98084;-69
2024/03/16 04:10:39;;;;;;;;;;;;;;;13.09;51.98;100223.50;4981421;27;99229;-75
2024/03/16 04:13:05;;;;;;;;;;;;;;;13.08;51.75;100227.28;4956953;27;98080;-70
2024/03/16 04:15:32;;;;;;;;;;;;;;;13.08;51.95;100237.31;4970534;27;98289;-76
2024/03/16 04:17:58;;;;;;;;;;;;;;;13.08;51.81;100235.41;4962267;27;98645;-75
2024/03/16 04:20:24;;;;;;;;;;;;;;;13.09;52.05;100225.41;4980395;27;98548;-69
2024/03/16 04:22:51;;;;;;;;;;;;;;;13.08;51.77;100229.19;4979109;27;98264;-75
2024/03/16 04:25:18;;;;;;;;;;;;;;;13.10;51.87;100227.00;4998176;27;98070;-75
2024/03/16 04:27:44;;;;;;;;;;;;;;;13.09;51.95;100222.69;4981101;27;98394;-75
2024/03/16 04:30:11;;;;;;;;;;;;;;;13.09;51.90;100228.09;4983815;27;98183;-70
2024/03/16 04:32:37;;;;;;;;;;;;;;;13.10;51.92;100227.81;4980134;27;97869;-76
2024/03/16 04:35:04;;;;;;;;;;;;;;;13.10;51.96;100233.22;4978274;27;98244;-75
2024/03/16 04:37:31;;;;;;;;;;;;;;;13.09;51.97;100226.22;4963776;27;98205;-76
2024/03/16 04:39:58;;;;;;;;;;;;;;;13.11;51.93;100225.91;4981810;27;98349;-75
2024/03/16 04:42:25;;;;;;;;;;;;;;;13.10;52.05;100222.41;4980905;27;98382;-69
2024/03/16 04:44:51;;;;;;;;;;;;;;;13.11;52.13;100220.50;4982719;27;98359;-69
2024/03/16 04:47:18;;;;;;;;;;;;;;;13.11;51.74;100234.03;4980983;27;98599;-76
2024/03/16 04:49:44;;;;;;;;;;;;;;;13.11;52.00;100236.72;4978933;27;98243;-69
2024/03/16 04:52:13;;;;;;;;;;;;;;;13.10;51.67;100233.22;4981889;27;98377;-69
2024/03/16 04:54:40;;;;;;;;;;;;;;;13.08;51.84;100235.41;4983145;27;98140;-69
2024/03/16 04:57:06;;;;;;;;;;;;;;;13.11;52.10;100244.84;4981816;27;98173;-69
2024/03/16 04:59:32;;;;;;;;;;;;;;;13.09;52.03;100239.72;4977925;27;98875;-69
2024/03/16 05:01:58;;;;;;;;;;;;;;;13.09;51.92;100242.44;4964746;27;98276;-75
2024/03/16 05:04:26;;;;;;;;;;;;;;;13.09;51.91;100252.47;4962903;27;97977;-69
2024/03/16 05:06:53;;;;;;;;;;;;;;;13.08;51.72;100243.50;4958497;27;98829;-76
2024/03/16 05:09:19;;;;;;;;;;;;;;;13.09;52.08;100244.34;4978595;27;98171;-69
2024/03/16 05:11:45;;;;;;;;;;;;;;;13.09;51.68;100249.75;4966857;27;98129;-76
2024/03/16 05:14:12;;;;;;;;;;;;;;;13.08;52.03;100245.41;4978774;27;98011;-70
2024/03/16 05:16:39;;;;;;;;;;;;;;;13.08;51.90;100248.13;4967704;27;98417;-76
2024/03/16 05:19:06;;;;;;;;;;;;;;;13.07;51.80;100252.72;4964747;27;97923;-70
2024/03/16 05:21:34;;;;;;;;;;;;;;;13.08;52.05;100254.34;4964730;27;97982;-76
2024/03/16 05:24:01;;;;;;;;;;;;;;;13.10;51.70;100254.06;4967787;27;98183;-69
2024/03/16 05:26:31;;;;;;;;;;;;;;;13.09;51.86;100255.97;4966713;27;98200;-76
2024/03/16 05:28:58;;;;;;;;;;;;;;;13.10;52.03;100254.06;4989112;27;98950;-69
2024/03/16 05:31:27;;;;;;;;;;;;;;;13.11;51.88;100256.47;4982281;27;98140;-76
2024/03/16 05:33:53;;;;;;;;;;;;;;;13.12;51.87;100270.81;4967186;27;98402;-76
2024/03/16 05:36:19;;;;;;;;;;;;;;;13.12;51.88;100263.50;4979771;27;98270;-69
2024/03/16 05:38:46;;;;;;;;;;;;;;;13.15;52.07;100262.13;4965280;27;98101;-76
2024/03/16 05:41:13;;;;;;;;;;;;;;;13.16;51.88;100264.53;4978352;27;98382;-76
2024/03/16 05:43:43;;;;;;;;;;;;;;;13.18;51.82;100264.25;4982273;27;98404;-76
2024/03/16 05:46:09;;;;;;;;;;;;;;;13.22;52.06;100266.09;4962815;27;98203;-70
2024/03/16 05:48:35;;;;;;;;;;;;;;;13.27;51.71;100268.75;4970031;27;98577;-70
2024/03/16 05:51:02;;;;;;;;;;;;;;;13.32;51.53;100261.66;4979800;27;99140;-76
2024/03/16 05:53:28;;;;;;;;;;;;;;;13.35;51.76;100275.41;4980563;27;97993;-76
2024/03/16 05:55:56;;;;;;;;;;;;;;;13.38;51.86;100274.03;4977538;27;98947;-70
2024/03/16 05:58:22;;;;;;;;;;;;;;;13.39;51.82;100271.03;4982879;27;98079;-76
2024/03/16 06:00:48;;;;;;;;;;;;;;;13.42;51.76;100280.50;4983616;27;98332;-76
2024/03/16 06:03:15;;;;;;;;;;;;;;;13.45;51.86;100280.72;4964194;27;98299;-76
2024/03/16 06:05:43;;;;;;;;;;;;;;;13.50;51.75;100287.97;4986448;27;98066;-76
2024/03/16 06:08:11;;;;;;;;;;;;;;;13.55;51.44;100290.59;4964594;27;98218;-76
2024/03/16 06:10:37;;;;;;;;;;;;;;;13.61;51.39;100292.16;4961701;27;98385;-76
2024/03/16 06:13:04;;;;;;;;;;;;;;;13.68;51.63;100292.59;4955239;27;100233;-70
2024/03/16 06:15:31;;;;;;;;;;;;;;;13.80;51.16;100300.28;4971541;27;97999;-70
2024/03/16 06:17:57;;;;;;;;;;;;;;;13.92;51.24;100297.16;4955588;27;98532;-77
2024/03/16 06:20:23;;;;;;;;;;;;;;;14.03;51.08;100301.31;4959793;27;98105;-76
2024/03/16 06:22:50;;;;;;;;;;;;;;;14.16;51.07;100303.28;4977154;27;98376;-76
2024/03/16 06:25:17;;;;;;;;;;;;;;;14.28;51.26;100310.97;4960634;27;98398;-76
2024/03/16 06:27:49;;;;;;;;;;;;;;;14.41;50.87;100309.38;4958351;27;98137;-70
2024/03/16 06:30:19;;;;;;;;;;;;;;;14.55;51.07;100307.56;4977919;27;98203;-70
2024/03/16 06:35:33;;;;;;;;;;;;;;;14.82;50.81;100316.88;4991843;27;99220;-76
2024/03/16 06:38:00;;;;;;;;;;;;;;;14.93;50.79;100316.38;4958426;27;98149;-76
2024/03/16 06:40:26;;;;;;;;;;;;;;;15.06;50.70;100320.22;4958064;27;98485;-70
2024/03/16 06:42:52;;;;;;;;;;;;;;;15.16;50.51;100319.19;4947436;27;99006;-70
2024/03/16 06:45:19;;;;;;;;;;;;;;;15.26;50.68;100324.44;4992058;27;98233;-70
2024/03/16 06:47:45;;;;;;;;;;;;;;;15.36;50.53;100329.66;4975158;27;99116;-70
2024/03/16 06:50:13;;;;;;;;;;;;;;;15.44;50.67;100333.56;4973927;27;98189;-70
2024/03/16 06:52:39;;;;;;;;;;;;;;;15.53;50.58;100339.13;4974433;27;98154;-76
2024/03/16 06:55:09;;;;;;;;;;;;;;;15.66;50.60;100335.59;4960854;27;98321;-70
2024/03/16 06:57:35;;;;;;;;;;;;;;;15.72;50.55;100331.69;4971977;27;98397;-76
2024/03/16 07:00:02;;;;;;;;;;;;;;;15.74;50.50;100340.31;4957249;27;98519;-70
2024/03/16 07:02:28;;;;;;;;;;;;;;;15.74;50.77;100350.41;4972490;27;98406;-76
2024/03/16 07:04:56;;;;;;;;;;;;;;;15.75;50.55;100349.28;4959086;27;98304;-77
2024/03/16 07:07:23;;;;;;;;;;;;;;;15.75;50.72;100358.22;4972826;27;98484;-76
2024/03/16 07:09:49;;;;;;;;;;;;;;;15.76;50.66;100350.88;4987108;27;97976;-69
2024/03/16 07:12:15;;;;;;;;;;;;;;;15.81;50.63;100356.22;4956427;27;98411;-77
2024/03/16 07:14:42;;;;;;;;;;;;;;;15.88;50.85;100356.63;4960685;27;98388;-70
2024/03/16 07:17:09;;;;;;;;;;;;;;;16.02;50.52;100364.72;4955605;27;98034;-70
2024/03/16 07:19:35;;;;;;;;;;;;;;;16.19;50.41;100359.44;4963775;27;98236;-76
2024/03/16 07:22:02;;;;;;;;;;;;;;;16.19;50.59;100367.59;4960823;27;98354;-76
2024/03/16 07:24:29;;;;;;;;;;;;;;;16.28;50.36;100354.88;4962901;27;98463;-76
2024/03/16 07:26:55;;;;;;;;;;;;;;;16.44;50.27;100367.00;4959126;27;98643;-70
2024/03/16 07:29:23;;;;;;;;;;;;;;;16.77;50.05;100374.13;4970963;27;98043;-76
2024/03/16 07:31:49;;;;;;;;;;;;;;;16.74;50.17;100366.59;4976318;27;98076;-76
2024/03/16 07:34:17;;;;;;;;;;;;;;;16.90;50.05;100374.06;4974666;27;98117;-77
2024/03/16 07:36:43;;;;;;;;;;;;;;;16.99;50.17;100368.66;4964451;27;98602;-77
2024/03/16 07:39:11;;;;;;;;;;;;;;;16.92;50.34;100371.81;5008432;27;98420;-70
2024/03/16 07:41:38;;;;;;;;;;;;;;;16.82;50.43;100365.84;4979122;27;98385;-76
2024/03/16 07:44:04;;;;;;;;;;;;;;;16.77;50.58;100371.41;4979245;27;98132;-76
2024/03/16 07:46:30;;;;;;;;;;;;;;;16.78;50.58;100371.13;4970998;27;99817;-69
2024/03/16 07:48:59;;;;;;;;;;;;;;;16.88;50.37;100379.00;4959539;27;98156;-77
2024/03/16 07:51:28;;;;;;;;;;;;;;;16.93;50.42;100373.44;4995591;27;100343;-76
2024/03/16 07:53:55;;;;;;;;;;;;;;;16.93;50.62;100380.78;4961939;27;98221;-76
2024/03/16 07:56:22;;;;;;;;;;;;;;;17.01;50.57;100376.50;4975724;27;98164;-76
2024/03/16 07:58:49;;;;;;;;;;;;;;;17.13;50.23;100380.28;4984282;27;98879;-70
2024/03/16 08:01:15;;;;;;;;;;;;;;;17.05;50.63;100374.78;4974879;27;98648;-76
2024/03/16 08:03:42;;;;;;;;;;;;;;;16.99;50.69;100378.75;4979144;27;98147;-70
2024/03/16 08:06:09;;;;;;;;;;;;;;;17.01;50.73;100380.03;4962824;27;98278;-70
2024/03/16 08:08:35;;;;;;;;;;;;;;;17.06;50.53;100388.09;4977301;27;98588;-70
2024/03/16 08:11:04;;;;;;;;;;;;;;;17.22;50.37;100384.97;4992064;27;98154;-70
2024/03/16 08:13:31;;;;;;;;;;;;;;;17.51;49.99;100387.97;4965423;27;97946;-76
2024/03/16 08:15:58;;;;;;;;;;;;;;;17.86;49.84;100388.09;4978863;27;98357;-76
2024/03/16 08:18:25;;;;;;;;;;;;;;;18.21;49.48;100393.59;4962339;27;98328;-70
2024/03/16 08:20:56;;;;;;;;;;;;;;;18.32;49.65;100390.22;4984078;27;97994;-76
2024/03/16 08:23:22;;;;;;;;;;;;;;;18.08;50.17;100393.41;4964767;27;99496;-70
2024/03/16 08:25:49;;;;;;;;;;;;;;;17.89;50.51;100392.91;4961682;27;98158;-76
2024/03/16 08:28:16;;;;;;;;;;;;;;;17.72;50.73;100395.53;4964839;27;98354;-71
2024/03/16 08:30:43;;;;;;;;;;;;;;;17.55;50.77;100399.81;4964223;27;99547;-71
2024/03/16 08:33:10;;;;;;;;;;;;;;;17.39;50.96;100402.19;4962890;27;98549;-76
2024/03/16 08:35:37;;;;;;;;;;;;;;;17.38;50.74;100397.06;4968318;27;98040;-70
2024/03/16 08:38:07;;;;;;;;;;;;;;;17.41;50.57;100394.50;4963781;27;97950;-70
2024/03/16 08:40:33;;;;;;;;;;;;;;;17.29;51.00;100398.91;4979623;27;99031;-76
2024/03/16 08:43:00;;;;;;;;;;;;;;;17.17;50.99;100399.50;4956595;27;98212;-70
2024/03/16 08:45:26;;;;;;;;;;;;;;;17.09;51.07;100392.88;4973851;27;98094;-76
2024/03/16 08:47:53;;;;;;;;;;;;;;;17.13;50.86;100398.53;4978568;27;98884;-76
2024/03/16 08:50:19;;;;;;;;;;;;;;;17.18;50.88;100396.47;4976822;27;98375;-77
2024/03/16 08:52:47;;;;;;;;;;;;;;;17.27;50.73;100382.91;4974057;27;99504;-76
2024/03/16 08:55:13;;;;;;;;;;;;;;;17.39;50.55;100385.81;4963479;27;98813;-77
2024/03/16 08:57:42;;;;;;;;;;;;;;;17.61;50.21;100386.88;4977843;27;98911;-76
2024/03/16 09:00:12;;;;;;;;;;;;;;;17.93;50.03;100384.91;4973716;27;98313;-71
2024/03/16 09:02:38;;;;;;;;;;;;;;;18.18;49.93;100377.84;4963248;27;98194;-74
2024/03/16 09:05:08;;;;;;;;;;;;;;;18.43;49.80;100389.88;4956655;27;98586;-77
2024/03/16 09:07:34;;;;;;;;;;;;;;;18.83;49.51;100379.63;4975445;27;101548;-72
2024/03/16 09:10:01;;;;;;;;;;;;;;;19.59;48.62;100381.56;5006679;27;98407;-77
2024/03/16 09:12:28;;;;;;;;;;;;;;;21.39;46.63;100378.78;4974198;27;98260;-77
2024/03/16 09:14:55;;;;;;;;;;;;;;;22.00;46.49;100382.25;4975223;27;99737;-70
2024/03/16 09:17:21;;;;;;;;;;;;;;;22.78;46.57;100378.22;4967001;27;99150;-71
2024/03/16 09:19:48;;;;;;;;;;;;;;;23.31;46.43;100369.81;4963638;27;99301;-77
2024/03/16 09:22:15;;;;;;;;;;;;;;;24.14;45.84;100378.81;4978343;27;99695;-71
2024/03/16 09:24:42;;;;;;;;;;;;;;;24.91;45.50;100379.94;4994038;27;99926;-71
2024/03/16 09:27:08;;;;;;;;;;;;;;;25.45;45.57;100385.22;4979573;27;99750;-69
2024/03/16 09:29:35;;;;;;;;;;;;;;;26.29;45.05;100383.31;4980726;27;98356;-72
2024/03/16 09:32:01;;;;;;;;;;;;;;;27.09;44.82;100392.06;4972212;27;98068;-77
2024/03/16 09:34:28;;;;;;;;;;;;;;;26.68;46.01;100385.72;4965849;27;98096;-77
2024/03/16 09:36:55;;;;;;;;;;;;;;;26.83;46.32;100390.25;4948124;27;98231;-76
2024/03/16 09:39:26;;;;;;;;;;;;;;;26.42;46.97;100401.22;4982429;27;98049;-70
2024/03/16 09:41:52;;;;;;;;;;;;;;;25.94;47.47;100400.97;4984369;27;98157;-70
2024/03/16 09:44:19;;;;;;;;;;;;;;;25.62;48.07;100396.91;4977720;27;99434;-70
2024/03/16 09:46:46;;;;;;;;;;;;;;;25.57;48.06;100392.50;4976397;27;98315;-77
2024/03/16 09:49:15;;;;;;;;;;;;;;;26.08;47.47;100386.56;4958676;27;98226;-76
2024/03/16 09:51:42;;;;;;;;;;;;;;;26.62;46.73;100384.50;4969969;27;99416;-76
2024/03/16 09:54:08;;;;;;;;;;;;;;;27.24;46.13;100390.28;4985501;27;101441;-76
2024/03/16 09:56:38;;;;;;;;;;;;;;;27.51;46.37;100393.66;4951464;27;101533;-76
2024/03/16 09:59:14;;;;;;;;;;;;;;;28.39;45.94;100391.81;4960515;27;98500;-75
2024/03/16 10:01:41;;;;;;;;;;;;;;;29.03;45.22;100394.78;4997342;27;98210;-75
2024/03/16 10:04:07;;;;;;;;;;;;;;;28.43;46.54;100389.06;4997034;27;98236;-70
2024/03/16 10:06:34;;;;;;;;;;;;;;;28.27;47.18;100390.16;4989785;27;98147;-70
2024/03/16 10:09:11;;;;;;;;;;;;;;;28.01;47.50;100384.88;4975358;27;100809;-75
2024/03/16 10:11:37;;;;;;;;;;;;;;;27.64;48.00;100383.06;4979738;27;98692;-76
2024/03/16 10:14:07;;;;;;;;;;;;;;;27.44;48.26;100381.72;4972998;27;99953;-70
2024/03/16 10:16:33;;;;;;;;;;;;;;;27.33;48.15;100381.66;4950816;27;99192;-71
2024/03/16 10:19:00;;;;;;;;;;;;;;;26.75;48.68;100379.50;4994731;27;97993;-75
2024/03/16 10:21:29;;;;;;;;;;;;;;;26.19;49.39;100378.44;4976150;27;98080;-75
2024/03/16 10:23:57;;;;;;;;;;;;;;;25.66;49.77;100383.97;4959947;27;98165;-75
2024/03/16 10:26:23;;;;;;;;;;;;;;;25.09;50.06;100383.00;4975800;27;98338;-76
2024/03/16 10:28:53;;;;;;;;;;;;;;;24.59;50.52;100379.34;4977454;27;98921;-75
2024/03/16 10:31:22;;;;;;;;;;;;;;;24.12;50.81;100383.06;4990505;27;98379;-70
2024/03/16 10:33:48;;;;;;;;;;;;;;;23.70;50.84;100390.03;4977007;27;98605;-75
2024/03/16 10:36:17;;;;;;;;;;;;;;;23.36;50.89;100398.97;4957194;27;104754;-75
2024/03/16 10:38:50;;;;;;;;;;;;;;;23.03;51.06;100386.38;4959066;27;99398;-70
2024/03/16 10:41:16;;;;;;;;;;;;;;;22.72;51.41;100389.84;4963546;27;98568;-75
2024/03/16 10:43:46;;;;;;;;;;;;;;;22.40;51.46;100395.25;4962231;27;99831;-75
2024/03/16 10:46:15;;;;;;;;;;;;;;;22.06;51.57;100394.59;4986389;27;100014;-70
2024/03/16 10:48:46;;;;;;;;;;;;;;;21.73;51.73;100397.53;4996722;27;98820;-74
2024/03/16 10:51:19;;;;;;;;;;;;;;;21.42;51.92;100403.56;4976760;27;98733;-75
2024/03/16 10:53:46;;;;;;;;;;;;;;;21.15;51.99;100395.97;4979341;27;98170;-74
2024/03/16 10:56:12;;;;;;;;;;;;;;;20.92;52.00;100407.34;4978809;27;98164;-74
2024/03/16 10:58:38;;;;;;;;;;;;;;;20.75;51.90;100407.47;4981546;27;98247;-70
2024/03/16 11:01:08;;;;;;;;;;;;;;;20.61;51.87;100410.53;4979682;27;98440;-70
2024/03/16 11:03:38;;;;;;;;;;;;;;;20.59;51.66;100418.25;4963712;27;98064;-69
2024/03/16 11:06:10;;;;;;;;;;;;;;;20.70;51.40;100408.50;4980552;27;98331;-69
2024/03/16 11:08:36;;;;;;;;;;;;;;;20.75;51.21;100421.19;4989607;27;98530;-69
2024/03/16 11:11:03;;;;;;;;;;;;;;;21.12;50.65;100411.16;5004110;27;97957;-75
2024/03/16 11:13:30;;;;;;;;;;;;;;;21.24;50.44;100408.41;4974822;27;98263;-70
2024/03/16 11:15:59;;;;;;;;;;;;;;;21.13;50.70;100409.19;4974525;27;98525;-70
2024/03/16 11:18:25;;;;;;;;;;;;;;;20.94;50.91;100406.97;4928737;27;1008458;-75
2024/03/16 11:20:53;;;;;;;;;;;;;;;20.91;50.96;100407.69;5004538;27;98107;-70
2024/03/16 11:23:27;;;;;;;;;;;;;;;20.71;51.10;100410.13;4955442;27;98480;-74
2024/03/16 11:25:54;;;;;;;;;;;;;;;20.46;51.28;100409.16;4957532;27;98329;-75
2024/03/16 11:28:21;;;;;;;;;;;;;;;20.24;51.39;100410.31;4957445;27;98200;-75
2024/03/16 11:30:48;;;;;;;;;;;;;;;20.28;51.30;100410.47;4958697;27;98426;-75
2024/03/16 11:33:14;;;;;;;;;;;;;;;20.54;50.83;100404.78;4975118;27;98235;-69
2024/03/16 11:35:41;;;;;;;;;;;;;;;21.87;49.13;100402.63;4972612;27;98339;-72
2024/03/16 11:38:15;;;;;;;;;;;;;;;21.53;49.82;100387.44;5004072;27;99666;-76
2024/03/16 11:40:43;;;;;;;;;;;;;;;21.40;50.23;100394.88;4956269;27;98402;-70
2024/03/16 11:43:13;;;;;;;;;;;;;;;21.39;50.20;100396.03;4957915;27;98298;-75
2024/03/16 11:45:46;;;;;;;;;;;;;;;21.22;50.42;100391.53;4960163;27;99028;-70
2024/03/16 11:48:12;;;;;;;;;;;;;;;20.91;50.69;100405.72;4977562;27;98113;-75
2024/03/16 11:50:39;;;;;;;;;;;;;;;20.72;50.92;100406.25;4976912;27;98420;-75
2024/03/16 11:53:06;;;;;;;;;;;;;;;20.74;50.87;100408.63;4978834;27;99241;-70
2024/03/16 11:55:35;;;;;;;;;;;;;;;20.92;50.49;100403.78;4978063;27;98763;-70
2024/03/16 11:58:03;;;;;;;;;;;;;;;21.20;50.22;100395.75;4956342;27;99908;-70
2024/03/16 12:00:29;;;;;;;;;;;;;;;21.25;50.05;100398.25;4955605;27;97987;-75
2024/03/16 12:02:57;;;;;;;;;;;;;;;21.52;49.81;100389.41;4968593;27;98184;-70
2024/03/16 12:05:23;;;;;;;;;;;;;;;21.84;49.69;100383.31;4961285;27;100228;-75
2024/03/16 12:07:49;;;;;;;;;;;;;;;22.61;48.53;100386.78;4962674;27;98008;-74
2024/03/16 12:10:16;;;;;;;;;;;;;;;23.49;48.04;100390.28;4959092;27;98231;-69
2024/03/16 12:12:43;;;;;;;;;;;;;;;22.94;48.85;100391.22;4960595;27;99930;-69
2024/03/16 12:15:14;;;;;;;;;;;;;;;22.57;49.58;100380.41;4977796;27;99609;-70
2024/03/16 12:17:48;;;;;;;;;;;;;;;22.63;49.46;100383.69;4971197;27;98798;-75
2024/03/16 12:20:17;;;;;;;;;;;;;;;23.70;48.34;100386.47;4996580;27;99328;-70
2024/03/16 12:22:53;;;;;;;;;;;;;;;24.24;48.03;100377.41;4985434;27;98191;-70
2024/03/16 12:25:25;;;;;;;;;;;;;;;24.59;47.78;100388.38;4967152;27;98200;-76
2024/03/16 12:27:54;;;;;;;;;;;;;;;24.99;47.56;100381.66;4969486;27;98236;-75
2024/03/16 12:30:23;;;;;;;;;;;;;;;25.24;47.69;100370.31;4986956;27;98699;-70
2024/03/16 12:32:49;;;;;;;;;;;;;;;25.62;47.47;100370.13;4984262;27;98824;-70
2024/03/16 12:35:16;;;;;;;;;;;;;;;26.36;46.77;100372.31;4985203;27;98242;-71
2024/03/16 12:37:42;;;;;;;;;;;;;;;26.79;46.62;100363.72;4982248;27;98320;-74